sensor_id;sensor_type;location;lat;lon;timestamp;P1;durP1;ratioP1;P2;durP2;ratioP2
49444;SDS011;35323;43.080;-81.378;2023-07-31T00:01:51;1.88;;;1.52;;
49444;SDS011;35323;43.080;-81.378;2023-07-31T00:04:19;1.90;;;1.60;;
49444;SDS011;35323;43.080;-81.378;2023-07-31T00:06:49;2.70;;;1.55;;
49444;SDS011;35323;43.080;-81.378;2023-07-31T00:09:26;2.30;;;1.70;;
49444;SDS011;35323;43.080;-81.378;2023-07-31T00:11:53;2.30;;;1.75;;
49444;SDS011;35323;43.080;-81.378;2023-07-31T00:14:21;2.78;;;2.35;;
49444;SDS011;35323;43.080;-81.378;2023-07-31T00:16:49;2.45;;;1.95;;
49444;SDS011;35323;43.080;-81.378;2023-07-31T00:19:18;1.80;;;1.65;;
49444;SDS011;35323;43.080;-81.378;2023-07-31T00:21:45;1.67;;;1.58;;
49444;SDS011;35323;43.080;-81.378;2023-07-31T00:24:13;4.43;;;2.63;;
49444;SDS011;35323;43.080;-81.378;2023-07-31T00:26:41;2.88;;;1.80;;
49444;SDS011;35323;43.080;-81.378;2023-07-31T00:29:08;5.28;;;1.67;;
49444;SDS011;35323;43.080;-81.378;2023-07-31T00:31:36;4.95;;;1.90;;
49444;SDS011;35323;43.080;-81.378;2023-07-31T00:34:04;2.35;;;2.15;;
49444;SDS011;35323;43.080;-81.378;2023-07-31T00:36:31;1.95;;;1.75;;
49444;SDS011;35323;43.080;-81.378;2023-07-31T00:38:59;4.13;;;2.65;;
49444;SDS011;35323;43.080;-81.378;2023-07-31T00:41:26;2.42;;;2.22;;
49444;SDS011;35323;43.080;-81.378;2023-07-31T00:43:56;1.77;;;1.50;;
49444;SDS011;35323;43.080;-81.378;2023-07-31T00:46:27;1.38;;;1.27;;
49444;SDS011;35323;43.080;-81.378;2023-07-31T00:48:55;2.60;;;2.08;;
49444;SDS011;35323;43.080;-81.378;2023-07-31T00:51:22;4.95;;;1.75;;
49444;SDS011;35323;43.080;-81.378;2023-07-31T00:53:50;2.10;;;1.90;;
49444;SDS011;35323;43.080;-81.378;2023-07-31T00:56:21;3.00;;;1.30;;
49444;SDS011;35323;43.080;-81.378;2023-07-31T00:58:49;3.40;;;2.08;;
49444;SDS011;35323;43.080;-81.378;2023-07-31T01:01:16;2.17;;;1.92;;
49444;SDS011;35323;43.080;-81.378;2023-07-31T01:03:44;2.15;;;1.70;;
49444;SDS011;35323;43.080;-81.378;2023-07-31T01:09:00;3.50;;;2.10;;
49444;SDS011;35323;43.080;-81.378;2023-07-31T01:11:31;2.10;;;1.52;;
49444;SDS011;35323;43.080;-81.378;2023-07-31T01:13:59;4.13;;;2.47;;
49444;SDS011;35323;43.080;-81.378;2023-07-31T01:16:30;4.35;;;2.38;;
49444;SDS011;35323;43.080;-81.378;2023-07-31T01:18:57;2.53;;;2.30;;
49444;SDS011;35323;43.080;-81.378;2023-07-31T01:26:36;1.77;;;1.65;;
49444;SDS011;35323;43.080;-81.378;2023-07-31T01:29:07;3.45;;;1.83;;
49444;SDS011;35323;43.080;-81.378;2023-07-31T01:31:35;2.40;;;2.20;;
49444;SDS011;35323;43.080;-81.378;2023-07-31T01:34:05;3.88;;;3.08;;
49444;SDS011;35323;43.080;-81.378;2023-07-31T01:36:36;4.18;;;3.78;;
49444;SDS011;35323;43.080;-81.378;2023-07-31T01:39:04;3.55;;;2.85;;
49444;SDS011;35323;43.080;-81.378;2023-07-31T01:41:33;3.20;;;2.40;;
49444;SDS011;35323;43.080;-81.378;2023-07-31T01:44:01;3.70;;;3.42;;
49444;SDS011;35323;43.080;-81.378;2023-07-31T01:46:28;4.20;;;3.22;;
49444;SDS011;35323;43.080;-81.378;2023-07-31T01:48:56;6.85;;;2.15;;
49444;SDS011;35323;43.080;-81.378;2023-07-31T01:51:24;3.95;;;2.25;;
49444;SDS011;35323;43.080;-81.378;2023-07-31T01:53:51;13.07;;;2.28;;
49444;SDS011;35323;43.080;-81.378;2023-07-31T01:56:19;4.53;;;1.98;;
49444;SDS011;35323;43.080;-81.378;2023-07-31T01:58:47;3.10;;;1.67;;
49444;SDS011;35323;43.080;-81.378;2023-07-31T02:01:14;2.22;;;1.90;;
49444;SDS011;35323;43.080;-81.378;2023-07-31T02:03:42;1.90;;;1.52;;
49444;SDS011;35323;43.080;-81.378;2023-07-31T02:06:10;1.90;;;1.70;;
49444;SDS011;35323;43.080;-81.378;2023-07-31T02:08:37;3.75;;;2.83;;
49444;SDS011;35323;43.080;-81.378;2023-07-31T02:11:05;2.65;;;2.00;;
49444;SDS011;35323;43.080;-81.378;2023-07-31T02:13:33;2.80;;;2.60;;
49444;SDS011;35323;43.080;-81.378;2023-07-31T02:16:01;3.25;;;2.80;;
49444;SDS011;35323;43.080;-81.378;2023-07-31T02:18:29;4.57;;;3.15;;
49444;SDS011;35323;43.080;-81.378;2023-07-31T02:20:56;5.20;;;4.68;;
49444;SDS011;35323;43.080;-81.378;2023-07-31T02:23:24;6.25;;;5.15;;
49444;SDS011;35323;43.080;-81.378;2023-07-31T02:25:52;4.00;;;2.47;;
49444;SDS011;35323;43.080;-81.378;2023-07-31T02:28:19;3.38;;;2.55;;
49444;SDS011;35323;43.080;-81.378;2023-07-31T02:30:47;3.63;;;3.00;;
49444;SDS011;35323;43.080;-81.378;2023-07-31T02:33:17;3.40;;;2.35;;
49444;SDS011;35323;43.080;-81.378;2023-07-31T02:35:45;3.97;;;2.53;;
49444;SDS011;35323;43.080;-81.378;2023-07-31T02:38:13;2.45;;;1.83;;
49444;SDS011;35323;43.080;-81.378;2023-07-31T02:40:40;5.68;;;4.25;;
49444;SDS011;35323;43.080;-81.378;2023-07-31T02:43:11;4.05;;;2.67;;
49444;SDS011;35323;43.080;-81.378;2023-07-31T02:45:38;3.10;;;2.75;;
49444;SDS011;35323;43.080;-81.378;2023-07-31T02:48:06;4.72;;;3.80;;
49444;SDS011;35323;43.080;-81.378;2023-07-31T02:50:34;7.20;;;4.25;;
49444;SDS011;35323;43.080;-81.378;2023-07-31T02:53:02;7.75;;;4.40;;
49444;SDS011;35323;43.080;-81.378;2023-07-31T02:55:30;4.63;;;3.65;;
49444;SDS011;35323;43.080;-81.378;2023-07-31T02:57:58;6.13;;;3.83;;
49444;SDS011;35323;43.080;-81.378;2023-07-31T03:00:26;5.15;;;3.53;;
49444;SDS011;35323;43.080;-81.378;2023-07-31T03:02:53;5.97;;;4.90;;
49444;SDS011;35323;43.080;-81.378;2023-07-31T03:05:21;5.13;;;4.72;;
49444;SDS011;35323;43.080;-81.378;2023-07-31T03:07:54;3.45;;;2.83;;
49444;SDS011;35323;43.080;-81.378;2023-07-31T03:10:22;5.22;;;3.05;;
49444;SDS011;35323;43.080;-81.378;2023-07-31T03:12:49;2.33;;;2.10;;
49444;SDS011;35323;43.080;-81.378;2023-07-31T03:15:17;2.05;;;1.85;;
49444;SDS011;35323;43.080;-81.378;2023-07-31T03:17:45;1.95;;;1.80;;
49444;SDS011;35323;43.080;-81.378;2023-07-31T03:20:13;5.10;;;2.25;;
49444;SDS011;35323;43.080;-81.378;2023-07-31T03:22:45;1.92;;;1.48;;
49444;SDS011;35323;43.080;-81.378;2023-07-31T03:25:15;1.65;;;1.23;;
49444;SDS011;35323;43.080;-81.378;2023-07-31T03:27:43;2.97;;;2.08;;
49444;SDS011;35323;43.080;-81.378;2023-07-31T03:30:11;3.53;;;2.47;;
49444;SDS011;35323;43.080;-81.378;2023-07-31T03:32:38;3.03;;;2.35;;
49444;SDS011;35323;43.080;-81.378;2023-07-31T03:35:06;2.50;;;1.95;;
49444;SDS011;35323;43.080;-81.378;2023-07-31T03:37:34;2.33;;;2.10;;
49444;SDS011;35323;43.080;-81.378;2023-07-31T03:40:01;2.70;;;1.80;;
49444;SDS011;35323;43.080;-81.378;2023-07-31T03:42:32;1.88;;;1.58;;
49444;SDS011;35323;43.080;-81.378;2023-07-31T03:45:00;1.30;;;1.20;;
49444;SDS011;35323;43.080;-81.378;2023-07-31T03:47:27;1.98;;;1.75;;
49444;SDS011;35323;43.080;-81.378;2023-07-31T03:49:55;2.33;;;1.60;;
49444;SDS011;35323;43.080;-81.378;2023-07-31T03:52:23;3.35;;;2.45;;
49444;SDS011;35323;43.080;-81.378;2023-07-31T03:54:51;2.88;;;2.30;;
49444;SDS011;35323;43.080;-81.378;2023-07-31T03:57:22;3.50;;;2.38;;
49444;SDS011;35323;43.080;-81.378;2023-07-31T03:59:49;2.90;;;2.58;;
49444;SDS011;35323;43.080;-81.378;2023-07-31T04:02:17;5.75;;;3.50;;
49444;SDS011;35323;43.080;-81.378;2023-07-31T04:04:45;5.63;;;4.40;;
49444;SDS011;35323;43.080;-81.378;2023-07-31T04:07:13;6.32;;;4.60;;
49444;SDS011;35323;43.080;-81.378;2023-07-31T04:09:41;5.90;;;4.88;;
49444;SDS011;35323;43.080;-81.378;2023-07-31T04:12:09;9.70;;;6.35;;
49444;SDS011;35323;43.080;-81.378;2023-07-31T04:14:37;8.88;;;4.82;;
49444;SDS011;35323;43.080;-81.378;2023-07-31T04:17:06;9.25;;;6.53;;
49444;SDS011;35323;43.080;-81.378;2023-07-31T04:19:37;5.22;;;4.72;;
49444;SDS011;35323;43.080;-81.378;2023-07-31T04:22:05;6.53;;;4.22;;
49444;SDS011;35323;43.080;-81.378;2023-07-31T04:24:33;6.30;;;5.40;;
49444;SDS011;35323;43.080;-81.378;2023-07-31T04:27:01;7.82;;;7.05;;
49444;SDS011;35323;43.080;-81.378;2023-07-31T04:29:28;4.63;;;3.58;;
49444;SDS011;35323;43.080;-81.378;2023-07-31T04:31:56;5.50;;;4.38;;
49444;SDS011;35323;43.080;-81.378;2023-07-31T04:34:23;6.93;;;4.72;;
49444;SDS011;35323;43.080;-81.378;2023-07-31T04:36:51;6.03;;;4.68;;
49444;SDS011;35323;43.080;-81.378;2023-07-31T04:39:19;7.15;;;4.40;;
49444;SDS011;35323;43.080;-81.378;2023-07-31T04:41:46;6.43;;;5.32;;
49444;SDS011;35323;43.080;-81.378;2023-07-31T04:44:14;8.52;;;7.00;;
49444;SDS011;35323;43.080;-81.378;2023-07-31T04:46:42;11.43;;;9.55;;
49444;SDS011;35323;43.080;-81.378;2023-07-31T04:49:10;11.38;;;8.88;;
49444;SDS011;35323;43.080;-81.378;2023-07-31T04:51:37;17.33;;;11.55;;
49444;SDS011;35323;43.080;-81.378;2023-07-31T04:54:05;14.65;;;10.27;;
49444;SDS011;35323;43.080;-81.378;2023-07-31T04:56:33;13.30;;;9.88;;
49444;SDS011;35323;43.080;-81.378;2023-07-31T04:59:00;12.98;;;9.25;;
49444;SDS011;35323;43.080;-81.378;2023-07-31T05:01:28;14.20;;;9.55;;
49444;SDS011;35323;43.080;-81.378;2023-07-31T05:03:55;10.85;;;8.02;;
49444;SDS011;35323;43.080;-81.378;2023-07-31T05:06:23;13.23;;;10.52;;
49444;SDS011;35323;43.080;-81.378;2023-07-31T05:08:51;10.80;;;7.07;;
49444;SDS011;35323;43.080;-81.378;2023-07-31T05:11:18;7.32;;;5.53;;
49444;SDS011;35323;43.080;-81.378;2023-07-31T05:13:46;8.32;;;5.55;;
49444;SDS011;35323;43.080;-81.378;2023-07-31T05:16:14;7.43;;;4.60;;
49444;SDS011;35323;43.080;-81.378;2023-07-31T05:18:44;6.43;;;3.78;;
49444;SDS011;35323;43.080;-81.378;2023-07-31T05:21:12;5.07;;;3.55;;
49444;SDS011;35323;43.080;-81.378;2023-07-31T05:23:39;3.83;;;3.40;;
49444;SDS011;35323;43.080;-81.378;2023-07-31T05:26:07;4.25;;;2.80;;
49444;SDS011;35323;43.080;-81.378;2023-07-31T05:28:37;5.07;;;3.28;;
49444;SDS011;35323;43.080;-81.378;2023-07-31T05:31:05;4.43;;;2.97;;
49444;SDS011;35323;43.080;-81.378;2023-07-31T05:33:32;5.63;;;3.17;;
49444;SDS011;35323;43.080;-81.378;2023-07-31T05:36:00;4.30;;;3.22;;
49444;SDS011;35323;43.080;-81.378;2023-07-31T05:38:28;3.55;;;1.92;;
49444;SDS011;35323;43.080;-81.378;2023-07-31T05:40:55;3.22;;;2.50;;
49444;SDS011;35323;43.080;-81.378;2023-07-31T05:43:23;4.18;;;2.90;;
49444;SDS011;35323;43.080;-81.378;2023-07-31T05:45:52;3.53;;;1.75;;
49444;SDS011;35323;43.080;-81.378;2023-07-31T05:48:19;2.70;;;2.40;;
49444;SDS011;35323;43.080;-81.378;2023-07-31T05:50:47;3.15;;;2.42;;
49444;SDS011;35323;43.080;-81.378;2023-07-31T05:53:15;4.20;;;2.97;;
49444;SDS011;35323;43.080;-81.378;2023-07-31T05:55:42;4.63;;;3.40;;
49444;SDS011;35323;43.080;-81.378;2023-07-31T05:58:10;4.07;;;2.03;;
49444;SDS011;35323;43.080;-81.378;2023-07-31T06:00:37;3.10;;;2.28;;
49444;SDS011;35323;43.080;-81.378;2023-07-31T06:03:05;3.58;;;2.38;;
49444;SDS011;35323;43.080;-81.378;2023-07-31T06:05:33;2.25;;;1.88;;
49444;SDS011;35323;43.080;-81.378;2023-07-31T06:08:00;3.83;;;2.50;;
49444;SDS011;35323;43.080;-81.378;2023-07-31T06:10:28;4.20;;;2.65;;
49444;SDS011;35323;43.080;-81.378;2023-07-31T06:12:56;2.10;;;1.90;;
49444;SDS011;35323;43.080;-81.378;2023-07-31T06:15:24;4.53;;;2.35;;
49444;SDS011;35323;43.080;-81.378;2023-07-31T06:17:52;3.80;;;2.38;;
49444;SDS011;35323;43.080;-81.378;2023-07-31T06:20:21;3.55;;;3.25;;
49444;SDS011;35323;43.080;-81.378;2023-07-31T06:22:48;3.20;;;2.22;;
49444;SDS011;35323;43.080;-81.378;2023-07-31T06:25:16;3.22;;;1.95;;
49444;SDS011;35323;43.080;-81.378;2023-07-31T06:27:44;4.60;;;2.38;;
49444;SDS011;35323;43.080;-81.378;2023-07-31T06:30:12;1.63;;;1.52;;
49444;SDS011;35323;43.080;-81.378;2023-07-31T06:32:40;4.82;;;2.20;;
49444;SDS011;35323;43.080;-81.378;2023-07-31T06:35:08;2.65;;;1.95;;
49444;SDS011;35323;43.080;-81.378;2023-07-31T06:37:35;2.17;;;1.88;;
49444;SDS011;35323;43.080;-81.378;2023-07-31T06:40:06;2.30;;;1.98;;
49444;SDS011;35323;43.080;-81.378;2023-07-31T06:42:36;4.72;;;1.90;;
49444;SDS011;35323;43.080;-81.378;2023-07-31T06:45:03;2.88;;;2.10;;
49444;SDS011;35323;43.080;-81.378;2023-07-31T06:47:31;3.85;;;1.83;;
49444;SDS011;35323;43.080;-81.378;2023-07-31T06:49:59;2.03;;;1.92;;
49444;SDS011;35323;43.080;-81.378;2023-07-31T06:52:27;2.80;;;1.70;;
49444;SDS011;35323;43.080;-81.378;2023-07-31T06:55:02;2.70;;;2.03;;
49444;SDS011;35323;43.080;-81.378;2023-07-31T06:57:30;2.47;;;1.65;;
49444;SDS011;35323;43.080;-81.378;2023-07-31T06:59:58;2.33;;;1.85;;
49444;SDS011;35323;43.080;-81.378;2023-07-31T07:02:26;3.78;;;2.20;;
49444;SDS011;35323;43.080;-81.378;2023-07-31T07:04:53;4.30;;;1.98;;
49444;SDS011;35323;43.080;-81.378;2023-07-31T07:07:21;2.33;;;1.70;;
49444;SDS011;35323;43.080;-81.378;2023-07-31T07:09:49;2.47;;;1.90;;
49444;SDS011;35323;43.080;-81.378;2023-07-31T07:12:16;1.67;;;1.58;;
49444;SDS011;35323;43.080;-81.378;2023-07-31T07:14:44;8.43;;;2.10;;
49444;SDS011;35323;43.080;-81.378;2023-07-31T07:17:14;3.13;;;2.92;;
49444;SDS011;35323;43.080;-81.378;2023-07-31T07:19:42;6.00;;;2.30;;
49444;SDS011;35323;43.080;-81.378;2023-07-31T07:22:11;2.28;;;2.08;;
49444;SDS011;35323;43.080;-81.378;2023-07-31T07:24:38;5.32;;;1.80;;
49444;SDS011;35323;43.080;-81.378;2023-07-31T07:27:06;2.25;;;1.75;;
49444;SDS011;35323;43.080;-81.378;2023-07-31T07:29:34;2.30;;;1.73;;
49444;SDS011;35323;43.080;-81.378;2023-07-31T07:32:01;2.05;;;1.50;;
49444;SDS011;35323;43.080;-81.378;2023-07-31T07:34:29;4.30;;;2.38;;
49444;SDS011;35323;43.080;-81.378;2023-07-31T07:36:57;6.60;;;2.33;;
49444;SDS011;35323;43.080;-81.378;2023-07-31T07:39:24;2.72;;;1.48;;
49444;SDS011;35323;43.080;-81.378;2023-07-31T07:41:55;2.30;;;2.10;;
49444;SDS011;35323;43.080;-81.378;2023-07-31T07:44:23;2.38;;;1.90;;
49444;SDS011;35323;43.080;-81.378;2023-07-31T07:46:50;3.20;;;1.70;;
49444;SDS011;35323;43.080;-81.378;2023-07-31T07:49:18;2.33;;;1.98;;
49444;SDS011;35323;43.080;-81.378;2023-07-31T07:51:46;1.88;;;1.73;;
49444;SDS011;35323;43.080;-81.378;2023-07-31T07:54:15;2.90;;;2.10;;
49444;SDS011;35323;43.080;-81.378;2023-07-31T07:56:44;2.17;;;1.98;;
49444;SDS011;35323;43.080;-81.378;2023-07-31T07:59:11;3.22;;;2.42;;
49444;SDS011;35323;43.080;-81.378;2023-07-31T08:01:39;2.40;;;1.80;;
49444;SDS011;35323;43.080;-81.378;2023-07-31T08:04:07;2.20;;;1.92;;
49444;SDS011;35323;43.080;-81.378;2023-07-31T08:06:35;2.05;;;1.70;;
49444;SDS011;35323;43.080;-81.378;2023-07-31T08:09:03;2.25;;;1.58;;
49444;SDS011;35323;43.080;-81.378;2023-07-31T08:11:33;1.75;;;1.48;;
49444;SDS011;35323;43.080;-81.378;2023-07-31T08:14:03;3.35;;;1.75;;
49444;SDS011;35323;43.080;-81.378;2023-07-31T08:16:31;3.03;;;2.30;;
49444;SDS011;35323;43.080;-81.378;2023-07-31T08:18:59;2.65;;;2.00;;
49444;SDS011;35323;43.080;-81.378;2023-07-31T08:21:27;2.65;;;1.67;;
49444;SDS011;35323;43.080;-81.378;2023-07-31T08:23:54;1.83;;;1.48;;
49444;SDS011;35323;43.080;-81.378;2023-07-31T08:26:24;3.75;;;2.30;;
49444;SDS011;35323;43.080;-81.378;2023-07-31T08:28:52;3.03;;;2.13;;
49444;SDS011;35323;43.080;-81.378;2023-07-31T08:31:19;2.97;;;1.75;;
49444;SDS011;35323;43.080;-81.378;2023-07-31T08:33:47;5.00;;;2.00;;
49444;SDS011;35323;43.080;-81.378;2023-07-31T08:36:15;1.52;;;1.38;;
49444;SDS011;35323;43.080;-81.378;2023-07-31T08:38:43;2.30;;;1.67;;
49444;SDS011;35323;43.080;-81.378;2023-07-31T08:41:10;4.40;;;2.10;;
49444;SDS011;35323;43.080;-81.378;2023-07-31T08:43:38;2.20;;;1.77;;
49444;SDS011;35323;43.080;-81.378;2023-07-31T08:46:06;9.90;;;2.45;;
49444;SDS011;35323;43.080;-81.378;2023-07-31T08:48:37;2.03;;;1.65;;
49444;SDS011;35323;43.080;-81.378;2023-07-31T08:51:08;2.35;;;1.83;;
49444;SDS011;35323;43.080;-81.378;2023-07-31T08:53:38;2.67;;;1.95;;
49444;SDS011;35323;43.080;-81.378;2023-07-31T08:56:06;4.00;;;2.00;;
49444;SDS011;35323;43.080;-81.378;2023-07-31T08:58:34;2.65;;;2.22;;
49444;SDS011;35323;43.080;-81.378;2023-07-31T09:01:03;1.92;;;1.75;;
49444;SDS011;35323;43.080;-81.378;2023-07-31T09:03:33;3.10;;;2.15;;
49444;SDS011;35323;43.080;-81.378;2023-07-31T09:06:01;2.63;;;2.42;;
49444;SDS011;35323;43.080;-81.378;2023-07-31T09:08:30;4.68;;;3.70;;
49444;SDS011;35323;43.080;-81.378;2023-07-31T09:10:59;2.83;;;2.42;;
49444;SDS011;35323;43.080;-81.378;2023-07-31T09:13:31;5.32;;;2.60;;
49444;SDS011;35323;43.080;-81.378;2023-07-31T09:15:59;3.60;;;2.75;;
49444;SDS011;35323;43.080;-81.378;2023-07-31T09:18:27;2.95;;;2.70;;
49444;SDS011;35323;43.080;-81.378;2023-07-31T09:21:04;4.70;;;3.13;;
49444;SDS011;35323;43.080;-81.378;2023-07-31T09:23:42;4.72;;;3.35;;
49444;SDS011;35323;43.080;-81.378;2023-07-31T09:26:10;4.35;;;3.05;;
49444;SDS011;35323;43.080;-81.378;2023-07-31T09:28:38;4.82;;;2.78;;
49444;SDS011;35323;43.080;-81.378;2023-07-31T09:31:06;4.65;;;2.42;;
49444;SDS011;35323;43.080;-81.378;2023-07-31T09:33:33;4.25;;;2.80;;
49444;SDS011;35323;43.080;-81.378;2023-07-31T09:36:13;6.07;;;2.67;;
49444;SDS011;35323;43.080;-81.378;2023-07-31T09:38:41;3.55;;;2.72;;
49444;SDS011;35323;43.080;-81.378;2023-07-31T09:41:08;3.47;;;2.45;;
49444;SDS011;35323;43.080;-81.378;2023-07-31T09:43:36;7.35;;;3.25;;
49444;SDS011;35323;43.080;-81.378;2023-07-31T09:46:05;3.38;;;2.92;;
49444;SDS011;35323;43.080;-81.378;2023-07-31T09:48:40;4.30;;;2.90;;
49444;SDS011;35323;43.080;-81.378;2023-07-31T09:51:08;3.47;;;2.22;;
49444;SDS011;35323;43.080;-81.378;2023-07-31T09:53:36;4.25;;;2.67;;
49444;SDS011;35323;43.080;-81.378;2023-07-31T09:56:03;3.90;;;3.28;;
49444;SDS011;35323;43.080;-81.378;2023-07-31T09:58:33;5.13;;;2.50;;
49444;SDS011;35323;43.080;-81.378;2023-07-31T10:01:02;3.60;;;3.17;;
49444;SDS011;35323;43.080;-81.378;2023-07-31T10:03:30;2.80;;;2.22;;
49444;SDS011;35323;43.080;-81.378;2023-07-31T10:05:59;3.50;;;2.50;;
49444;SDS011;35323;43.080;-81.378;2023-07-31T10:08:28;4.65;;;4.18;;
49444;SDS011;35323;43.080;-81.378;2023-07-31T10:10:58;3.60;;;2.58;;
49444;SDS011;35323;43.080;-81.378;2023-07-31T10:13:27;3.25;;;2.40;;
49444;SDS011;35323;43.080;-81.378;2023-07-31T10:15:56;4.40;;;2.90;;
49444;SDS011;35323;43.080;-81.378;2023-07-31T10:18:26;3.75;;;2.60;;
49444;SDS011;35323;43.080;-81.378;2023-07-31T10:20:54;4.00;;;3.08;;
49444;SDS011;35323;43.080;-81.378;2023-07-31T10:23:22;4.43;;;3.13;;
49444;SDS011;35323;43.080;-81.378;2023-07-31T10:25:51;5.38;;;3.95;;
49444;SDS011;35323;43.080;-81.378;2023-07-31T10:28:20;3.78;;;3.42;;
49444;SDS011;35323;43.080;-81.378;2023-07-31T10:30:48;5.20;;;3.72;;
49444;SDS011;35323;43.080;-81.378;2023-07-31T10:33:17;5.25;;;3.47;;
49444;SDS011;35323;43.080;-81.378;2023-07-31T10:35:47;3.17;;;2.80;;
49444;SDS011;35323;43.080;-81.378;2023-07-31T10:38:15;2.92;;;2.60;;
49444;SDS011;35323;43.080;-81.378;2023-07-31T10:40:43;6.28;;;3.88;;
49444;SDS011;35323;43.080;-81.378;2023-07-31T10:43:23;4.13;;;2.88;;
49444;SDS011;35323;43.080;-81.378;2023-07-31T10:45:52;3.38;;;2.65;;
49444;SDS011;35323;43.080;-81.378;2023-07-31T10:48:20;4.30;;;2.72;;
49444;SDS011;35323;43.080;-81.378;2023-07-31T10:50:55;3.55;;;3.25;;
49444;SDS011;35323;43.080;-81.378;2023-07-31T10:53:24;6.38;;;3.60;;
49444;SDS011;35323;43.080;-81.378;2023-07-31T10:55:52;5.35;;;2.80;;
49444;SDS011;35323;43.080;-81.378;2023-07-31T10:58:20;5.28;;;3.00;;
49444;SDS011;35323;43.080;-81.378;2023-07-31T11:00:48;5.07;;;3.38;;
49444;SDS011;35323;43.080;-81.378;2023-07-31T11:03:17;6.95;;;3.25;;
49444;SDS011;35323;43.080;-81.378;2023-07-31T11:05:49;5.45;;;3.67;;
49444;SDS011;35323;43.080;-81.378;2023-07-31T11:08:18;5.35;;;4.13;;
49444;SDS011;35323;43.080;-81.378;2023-07-31T11:10:47;3.72;;;3.08;;
49444;SDS011;35323;43.080;-81.378;2023-07-31T11:13:14;5.93;;;4.68;;
49444;SDS011;35323;43.080;-81.378;2023-07-31T11:15:42;3.72;;;3.25;;
49444;SDS011;35323;43.080;-81.378;2023-07-31T11:18:10;4.07;;;3.17;;
49444;SDS011;35323;43.080;-81.378;2023-07-31T11:20:40;3.25;;;2.40;;
49444;SDS011;35323;43.080;-81.378;2023-07-31T11:23:08;3.60;;;2.33;;
49444;SDS011;35323;43.080;-81.378;2023-07-31T11:25:38;8.65;;;3.03;;
49444;SDS011;35323;43.080;-81.378;2023-07-31T11:28:12;4.57;;;2.92;;
49444;SDS011;35323;43.080;-81.378;2023-07-31T11:30:40;3.50;;;2.70;;
49444;SDS011;35323;43.080;-81.378;2023-07-31T11:33:09;3.70;;;2.50;;
49444;SDS011;35323;43.080;-81.378;2023-07-31T11:35:41;3.30;;;2.63;;
49444;SDS011;35323;43.080;-81.378;2023-07-31T11:38:11;4.50;;;3.08;;
49444;SDS011;35323;43.080;-81.378;2023-07-31T11:40:42;3.30;;;2.80;;
49444;SDS011;35323;43.080;-81.378;2023-07-31T11:43:10;4.13;;;3.17;;
49444;SDS011;35323;43.080;-81.378;2023-07-31T11:45:48;4.70;;;3.72;;
49444;SDS011;35323;43.080;-81.378;2023-07-31T11:48:20;4.00;;;3.05;;
49444;SDS011;35323;43.080;-81.378;2023-07-31T11:50:49;2.85;;;2.55;;
49444;SDS011;35323;43.080;-81.378;2023-07-31T11:53:19;3.10;;;2.13;;
49444;SDS011;35323;43.080;-81.378;2023-07-31T11:55:48;3.92;;;2.85;;
49444;SDS011;35323;43.080;-81.378;2023-07-31T11:58:16;3.60;;;2.78;;
49444;SDS011;35323;43.080;-81.378;2023-07-31T12:00:44;3.20;;;2.60;;
49444;SDS011;35323;43.080;-81.378;2023-07-31T12:03:15;3.72;;;3.30;;
49444;SDS011;35323;43.080;-81.378;2023-07-31T12:05:43;3.22;;;2.67;;
49444;SDS011;35323;43.080;-81.378;2023-07-31T12:08:11;3.30;;;2.83;;
49444;SDS011;35323;43.080;-81.378;2023-07-31T12:10:39;2.85;;;2.15;;
49444;SDS011;35323;43.080;-81.378;2023-07-31T12:13:08;1.92;;;1.65;;
49444;SDS011;35323;43.080;-81.378;2023-07-31T12:15:46;4.28;;;2.53;;
49444;SDS011;35323;43.080;-81.378;2023-07-31T12:18:15;5.30;;;3.00;;
49444;SDS011;35323;43.080;-81.378;2023-07-31T12:21:02;2.35;;;1.80;;
49444;SDS011;35323;43.080;-81.378;2023-07-31T12:23:32;3.83;;;2.65;;
49444;SDS011;35323;43.080;-81.378;2023-07-31T12:26:03;3.70;;;2.13;;
49444;SDS011;35323;43.080;-81.378;2023-07-31T12:28:38;2.60;;;2.38;;
49444;SDS011;35323;43.080;-81.378;2023-07-31T12:31:10;4.38;;;3.10;;
49444;SDS011;35323;43.080;-81.378;2023-07-31T12:33:38;3.72;;;2.22;;
49444;SDS011;35323;43.080;-81.378;2023-07-31T12:36:16;2.88;;;2.17;;
49444;SDS011;35323;43.080;-81.378;2023-07-31T12:38:44;7.63;;;3.40;;
49444;SDS011;35323;43.080;-81.378;2023-07-31T12:41:12;2.78;;;2.45;;
49444;SDS011;35323;43.080;-81.378;2023-07-31T12:43:41;3.78;;;2.38;;
49444;SDS011;35323;43.080;-81.378;2023-07-31T12:46:09;2.90;;;1.90;;
49444;SDS011;35323;43.080;-81.378;2023-07-31T12:48:38;2.38;;;1.65;;
49444;SDS011;35323;43.080;-81.378;2023-07-31T12:51:06;3.22;;;2.25;;
49444;SDS011;35323;43.080;-81.378;2023-07-31T12:53:36;2.67;;;1.90;;
49444;SDS011;35323;43.080;-81.378;2023-07-31T12:56:07;5.47;;;2.70;;
49444;SDS011;35323;43.080;-81.378;2023-07-31T12:58:35;3.65;;;2.78;;
49444;SDS011;35323;43.080;-81.378;2023-07-31T13:01:02;2.47;;;2.17;;
49444;SDS011;35323;43.080;-81.378;2023-07-31T13:03:30;4.68;;;2.92;;
49444;SDS011;35323;43.080;-81.378;2023-07-31T13:06:04;5.53;;;2.63;;
49444;SDS011;35323;43.080;-81.378;2023-07-31T13:08:32;4.57;;;3.33;;
49444;SDS011;35323;43.080;-81.378;2023-07-31T13:11:00;3.60;;;2.63;;
49444;SDS011;35323;43.080;-81.378;2023-07-31T13:13:28;3.22;;;2.47;;
49444;SDS011;35323;43.080;-81.378;2023-07-31T13:15:58;4.15;;;2.33;;
49444;SDS011;35323;43.080;-81.378;2023-07-31T13:18:26;3.28;;;2.45;;
49444;SDS011;35323;43.080;-81.378;2023-07-31T13:20:54;3.30;;;2.10;;
49444;SDS011;35323;43.080;-81.378;2023-07-31T13:23:22;3.25;;;2.80;;
49444;SDS011;35323;43.080;-81.378;2023-07-31T13:25:49;4.95;;;3.22;;
49444;SDS011;35323;43.080;-81.378;2023-07-31T13:28:17;3.00;;;2.60;;
49444;SDS011;35323;43.080;-81.378;2023-07-31T13:30:45;4.45;;;3.60;;
49444;SDS011;35323;43.080;-81.378;2023-07-31T13:33:15;7.13;;;3.97;;
49444;SDS011;35323;43.080;-81.378;2023-07-31T13:36:01;4.78;;;3.63;;
49444;SDS011;35323;43.080;-81.378;2023-07-31T13:38:28;4.93;;;3.78;;
49444;SDS011;35323;43.080;-81.378;2023-07-31T13:40:56;5.05;;;4.55;;
49444;SDS011;35323;43.080;-81.378;2023-07-31T13:43:24;4.43;;;3.88;;
49444;SDS011;35323;43.080;-81.378;2023-07-31T13:45:51;6.32;;;4.28;;
49444;SDS011;35323;43.080;-81.378;2023-07-31T13:48:19;6.53;;;3.83;;
49444;SDS011;35323;43.080;-81.378;2023-07-31T13:50:47;5.68;;;4.53;;
49444;SDS011;35323;43.080;-81.378;2023-07-31T13:53:15;6.97;;;3.92;;
49444;SDS011;35323;43.080;-81.378;2023-07-31T13:55:42;6.93;;;3.85;;
49444;SDS011;35323;43.080;-81.378;2023-07-31T13:58:12;4.57;;;3.78;;
49444;SDS011;35323;43.080;-81.378;2023-07-31T14:00:40;5.53;;;4.18;;
49444;SDS011;35323;43.080;-81.378;2023-07-31T14:03:07;5.22;;;3.40;;
49444;SDS011;35323;43.080;-81.378;2023-07-31T14:05:35;9.05;;;3.45;;
49444;SDS011;35323;43.080;-81.378;2023-07-31T14:08:03;4.18;;;2.80;;
49444;SDS011;35323;43.080;-81.378;2023-07-31T14:10:31;5.15;;;4.32;;
49444;SDS011;35323;43.080;-81.378;2023-07-31T14:12:58;5.15;;;4.30;;
49444;SDS011;35323;43.080;-81.378;2023-07-31T14:15:26;5.10;;;3.95;;
49444;SDS011;35323;43.080;-81.378;2023-07-31T14:17:54;4.53;;;3.10;;
49444;SDS011;35323;43.080;-81.378;2023-07-31T14:20:25;3.90;;;3.58;;
49444;SDS011;35323;43.080;-81.378;2023-07-31T14:22:53;4.63;;;2.47;;
49444;SDS011;35323;43.080;-81.378;2023-07-31T14:25:21;3.10;;;2.72;;
49444;SDS011;35323;43.080;-81.378;2023-07-31T14:27:48;3.67;;;2.95;;
49444;SDS011;35323;43.080;-81.378;2023-07-31T14:30:17;4.50;;;3.47;;
49444;SDS011;35323;43.080;-81.378;2023-07-31T14:32:45;5.65;;;3.95;;
49444;SDS011;35323;43.080;-81.378;2023-07-31T14:35:13;4.22;;;3.40;;
49444;SDS011;35323;43.080;-81.378;2023-07-31T14:37:41;5.50;;;4.28;;